Time;durP1;ratioP1;P1;durP2;ratioP2;P2;SDS_P1;SDS_P2;PMS_P1;PMS_P2;Temp;Humidity;BMP_temperature;BMP_pressure;BME280_temperature;BME280_humidity;BME280_pressure;Samples;Min_cycle;Max_cycle;Signal;HPM_P1;HPM_P2
2023/05/26 00:00:03;;;;;;;11.33;4.33;;;10.10;99.90;;;;;;4955376;28;20570;-71
2023/05/26 00:02:31;;;;;;;13.17;5.20;;;10.00;99.90;;;;;;4953126;28;20537;-71
2023/05/26 00:04:59;;;;;;;16.60;4.80;;;10.00;99.90;;;;;;4962696;28;20490;-71
2023/05/26 00:07:28;;;;;;;13.43;4.77;;;10.00;99.90;;;;;;4967957;28;20510;-71
2023/05/26 00:09:56;;;;;;;13.10;4.70;;;9.90;99.90;;;;;;4965135;28;20466;-71
2023/05/26 00:12:24;;;;;;;14.13;5.00;;;9.90;99.90;;;;;;4969168;28;21051;-71
2023/05/26 00:14:52;;;;;;;13.27;4.90;;;9.90;99.90;;;;;;4966092;28;20513;-71
2023/05/26 00:17:21;;;;;;;15.63;5.57;;;9.80;99.90;;;;;;4960463;28;20497;-71
2023/05/26 00:19:52;;;;;;;19.00;5.37;;;9.80;99.90;;;;;;4963771;28;20566;-71
2023/05/26 00:22:20;;;;;;;15.63;5.07;;;9.70;99.90;;;;;;4965524;28;20510;-71
2023/05/26 00:24:51;;;;;;;12.30;4.70;;;9.70;99.90;;;;;;4956631;28;20812;-71
2023/05/26 00:27:19;;;;;;;20.70;5.60;;;9.70;99.90;;;;;;4962516;28;20481;-71
2023/05/26 00:29:48;;;;;;;13.80;4.90;;;9.60;99.90;;;;;;4963991;28;20526;-72
2023/05/26 00:32:17;;;;;;;16.07;4.30;;;9.60;99.90;;;;;;4966834;28;20481;-71
2023/05/26 00:34:45;;;;;;;13.60;5.03;;;9.50;99.90;;;;;;4964064;28;20529;-71
2023/05/26 00:37:13;;;;;;;15.27;5.93;;;9.50;99.90;;;;;;4959493;28;20529;-71
2023/05/26 00:39:41;;;;;;;15.70;5.20;;;9.50;99.90;;;;;;4954543;28;21100;-71
2023/05/26 00:42:11;;;;;;;11.60;4.47;;;9.40;99.90;;;;;;4954347;28;20478;-71
2023/05/26 00:44:39;;;;;;;13.27;5.17;;;9.40;99.90;;;;;;4949986;28;20501;-71
2023/05/26 00:47:07;;;;;;;22.27;5.37;;;9.30;99.90;;;;;;4954728;28;20481;-71
2023/05/26 00:49:35;;;;;;;13.10;4.80;;;9.30;99.90;;;;;;4953506;28;20470;-72
2023/05/26 00:52:04;;;;;;;14.03;5.00;;;9.30;99.90;;;;;;4954066;28;20480;-72
2023/05/26 00:54:33;;;;;;;16.80;5.50;;;9.30;99.90;;;;;;4956405;28;20534;-71
2023/05/26 00:57:02;;;;;;;13.20;4.80;;;9.20;99.90;;;;;;4952959;28;20524;-74
2023/05/26 00:59:32;;;;;;;9.90;4.87;;;9.20;99.90;;;;;;4951338;28;20607;-71
2023/05/26 01:02:01;;;;;;;18.43;6.30;;;9.20;99.90;;;;;;4952487;28;20569;-71
2023/05/26 01:04:29;;;;;;;12.43;5.50;;;9.10;99.90;;;;;;4956667;28;20573;-71
2023/05/26 01:06:57;;;;;;;13.43;4.53;;;9.00;99.90;;;;;;4959795;28;20572;-71
2023/05/26 01:09:26;;;;;;;14.30;5.50;;;9.00;99.90;;;;;;4961431;28;20470;-72
2023/05/26 01:12:01;;;;;;;14.67;5.20;;;9.00;99.90;;;;;;4962293;28;20478;-71
2023/05/26 01:14:37;;;;;;;16.27;4.73;;;8.90;99.90;;;;;;4958865;28;20489;-72
2023/05/26 01:17:11;;;;;;;16.30;5.40;;;8.90;99.90;;;;;;4957862;28;20486;-73
2023/05/26 01:20:01;;;;;;;11.90;4.30;;;8.90;99.90;;;;;;4957150;28;20580;-73
2023/05/26 01:22:43;;;;;;;16.50;5.20;;;8.80;99.90;;;;;;4959993;28;20558;-74
2023/05/26 01:25:30;;;;;;;13.73;4.30;;;8.70;99.90;;;;;;4956066;28;21553;-74
2023/05/26 01:28:06;;;;;;;16.23;5.23;;;8.70;99.90;;;;;;4962096;28;20499;-74
2023/05/26 01:30:44;;;;;;;10.07;4.10;;;8.70;99.90;;;;;;4960489;28;20590;-71
2023/05/26 01:33:12;;;;;;;10.77;5.17;;;8.70;99.90;;;;;;4959583;28;21070;-71
2023/05/26 01:35:42;;;;;;;8.60;4.20;;;8.70;99.90;;;;;;4954931;28;20501;-73
2023/05/26 01:38:10;;;;;;;11.93;4.30;;;8.60;99.90;;;;;;4953070;28;20486;-71
2023/05/26 01:40:42;;;;;;;14.73;5.00;;;8.60;99.90;;;;;;4953375;28;21007;-73
2023/05/26 01:43:17;;;;;;;16.27;6.20;;;8.50;99.90;;;;;;4953957;28;20497;-73
2023/05/26 01:45:50;;;;;;;24.33;6.30;;;8.50;99.90;;;;;;4955731;28;20516;-72
2023/05/26 01:48:18;;;;;;;10.43;4.87;;;8.50;99.90;;;;;;4953647;28;20527;-72
2023/05/26 01:50:52;;;;;;;14.60;4.73;;;8.40;99.90;;;;;;4947616;28;22494;-73
2023/05/26 01:53:24;;;;;;;16.33;7.10;;;8.40;99.90;;;;;;4949774;28;20494;-72
2023/05/26 01:55:56;;;;;;;12.10;4.80;;;8.30;99.90;;;;;;4957960;28;20514;-73
2023/05/26 01:58:26;;;;;;;15.83;4.97;;;8.20;99.90;;;;;;4958537;28;20498;-73
2023/05/26 02:00:54;;;;;;;14.23;4.87;;;8.20;99.90;;;;;;4956902;28;20466;-72
2023/05/26 02:03:22;;;;;;;13.40;4.97;;;8.20;99.90;;;;;;4957423;28;20843;-73
2023/05/26 02:05:51;;;;;;;13.87;5.30;;;8.10;99.90;;;;;;4954226;28;20494;-73
2023/05/26 02:08:19;;;;;;;14.10;4.43;;;8.10;99.90;;;;;;4956498;28;20478;-73
2023/05/26 02:10:47;;;;;;;12.73;4.53;;;8.10;99.90;;;;;;4957221;28;20521;-73
2023/05/26 02:13:15;;;;;;;14.17;5.03;;;8.10;99.90;;;;;;4957633;28;20612;-73
2023/05/26 02:15:44;;;;;;;17.00;4.87;;;8.00;99.90;;;;;;4954037;28;20496;-73
2023/05/26 02:18:15;;;;;;;17.93;5.13;;;8.00;99.90;;;;;;4958620;28;20628;-73
2023/05/26 02:20:43;;;;;;;14.03;4.63;;;8.00;99.90;;;;;;4961184;28;20474;-75
2023/05/26 02:23:11;;;;;;;9.83;4.43;;;8.00;99.90;;;;;;4965250;28;20536;-72
2023/05/26 02:25:39;;;;;;;14.57;4.80;;;7.90;99.90;;;;;;4962456;28;20557;-73
2023/05/26 02:28:07;;;;;;;13.57;4.70;;;7.90;99.90;;;;;;4959774;28;20474;-73
2023/05/26 02:30:35;;;;;;;12.90;4.70;;;7.90;99.90;;;;;;4962007;28;20486;-74
2023/05/26 02:33:05;;;;;;;9.90;4.40;;;7.90;99.90;;;;;;4956021;28;20478;-71
2023/05/26 02:35:34;;;;;;;19.17;5.40;;;7.90;99.90;;;;;;4962414;28;20513;-71
2023/05/26 02:38:02;;;;;;;16.00;5.13;;;7.80;99.90;;;;;;4964399;28;20471;-73
2023/05/26 02:40:30;;;;;;;14.10;4.67;;;7.80;99.90;;;;;;4963700;28;20854;-71
2023/05/26 02:42:58;;;;;;;14.10;4.40;;;7.70;99.90;;;;;;4961578;28;20918;-71
2023/05/26 02:45:26;;;;;;;11.20;4.87;;;7.70;99.90;;;;;;4962013;28;20875;-74
2023/05/26 02:47:54;;;;;;;12.87;4.73;;;7.70;99.90;;;;;;4963650;28;20469;-73
2023/05/26 02:50:23;;;;;;;14.00;4.63;;;7.70;99.90;;;;;;4963741;28;20465;-71
2023/05/26 02:52:51;;;;;;;13.43;4.77;;;7.60;99.90;;;;;;4958907;28;20520;-70
2023/05/26 02:55:21;;;;;;;11.50;4.40;;;7.60;99.90;;;;;;4952913;28;20515;-71
2023/05/26 02:57:50;;;;;;;12.07;4.70;;;7.60;99.90;;;;;;4955559;28;20478;-72
2023/05/26 03:00:20;;;;;;;12.70;4.53;;;7.60;99.90;;;;;;4954043;28;20933;-71
2023/05/26 03:02:48;;;;;;;19.47;5.00;;;7.60;99.90;;;;;;4958333;28;20506;-71
2023/05/26 03:05:16;;;;;;;15.70;6.40;;;7.50;99.90;;;;;;4956422;28;20497;-72
2023/05/26 03:07:48;;;;;;;13.07;5.03;;;7.50;99.90;;;;;;4961081;28;20514;-71
2023/05/26 03:10:16;;;;;;;13.13;4.93;;;7.50;99.90;;;;;;4958476;28;20573;-71
2023/05/26 03:12:45;;;;;;;16.27;4.27;;;7.40;99.90;;;;;;4961938;28;20467;-71
2023/05/26 03:15:13;;;;;;;16.20;4.60;;;7.40;99.90;;;;;;4956594;28;20601;-71
2023/05/26 03:17:41;;;;;;;17.60;5.10;;;7.40;99.90;;;;;;4960112;28;20475;-71
2023/05/26 03:20:10;;;;;;;13.70;5.70;;;7.40;99.90;;;;;;4953946;28;20525;-72
2023/05/26 03:22:38;;;;;;;12.60;5.10;;;7.40;99.90;;;;;;4955456;28;20477;-73
2023/05/26 03:25:22;;;;;;;16.57;6.10;;;7.30;99.90;;;;;;4958021;28;20486;-72
2023/05/26 03:27:50;;;;;;;13.07;4.70;;;7.30;99.90;;;;;;4961400;28;20471;-72
2023/05/26 03:30:18;;;;;;;19.40;4.80;;;7.30;99.90;;;;;;4951930;28;20949;-72
2023/05/26 03:32:46;;;;;;;12.97;4.87;;;7.30;99.90;;;;;;4958833;28;20478;-73
2023/05/26 03:35:14;;;;;;;11.20;4.93;;;7.20;99.90;;;;;;4957711;28;20503;-72
2023/05/26 03:37:44;;;;;;;13.40;4.93;;;7.20;99.90;;;;;;4962621;28;20469;-72
2023/05/26 03:40:13;;;;;;;13.50;4.63;;;7.20;99.90;;;;;;4955871;28;21793;-72
2023/05/26 03:42:42;;;;;;;13.40;4.40;;;7.20;99.90;;;;;;4957764;28;20470;-71
2023/05/26 03:45:12;;;;;;;11.20;4.60;;;7.20;99.90;;;;;;4951496;28;20582;-72
2023/05/26 03:47:40;;;;;;;15.47;5.93;;;7.20;99.90;;;;;;4955881;28;20492;-71
2023/05/26 03:50:09;;;;;;;13.20;4.40;;;7.20;99.90;;;;;;4954566;28;20474;-71
2023/05/26 03:52:37;;;;;;;14.50;5.00;;;7.20;99.90;;;;;;4960816;28;20477;-72
2023/05/26 03:55:10;;;;;;;14.17;5.20;;;7.20;99.90;;;;;;4953440;28;20513;-72
2023/05/26 03:57:38;;;;;;;15.57;4.93;;;7.20;99.90;;;;;;4962833;28;20508;-72
2023/05/26 04:00:10;;;;;;;15.10;5.30;;;7.20;99.90;;;;;;4962502;28;20503;-72
2023/05/26 04:02:38;;;;;;;13.53;4.50;;;7.20;99.90;;;;;;4963941;28;20605;-72
2023/05/26 04:05:08;;;;;;;9.90;4.50;;;7.20;99.90;;;;;;4952021;28;20495;-72
2023/05/26 04:07:36;;;;;;;13.90;4.70;;;7.20;99.90;;;;;;4963111;28;20499;-72
2023/05/26 04:10:05;;;;;;;20.77;6.13;;;7.20;99.90;;;;;;4957647;28;21030;-72
2023/05/26 04:12:33;;;;;;;19.03;4.43;;;7.20;99.90;;;;;;4954543;28;20942;-72
2023/05/26 04:15:04;;;;;;;17.60;4.83;;;7.30;99.90;;;;;;4948263;28;20584;-72
2023/05/26 04:17:37;;;;;;;16.00;5.00;;;7.30;99.90;;;;;;4962848;28;20978;-71
2023/05/26 04:20:08;;;;;;;14.97;5.37;;;7.30;99.90;;;;;;4963731;28;20522;-72
2023/05/26 04:22:36;;;;;;;12.60;5.53;;;7.30;99.90;;;;;;4963025;28;20995;-72
2023/05/26 04:25:09;;;;;;;15.53;4.80;;;7.40;99.90;;;;;;4959421;28;20484;-71
2023/05/26 04:27:37;;;;;;;15.30;5.33;;;7.40;99.90;;;;;;4962789;28;20547;-72
2023/05/26 04:30:09;;;;;;;13.30;5.23;;;7.40;99.90;;;;;;4961241;28;20517;-72
2023/05/26 04:32:38;;;;;;;13.73;5.03;;;7.40;99.90;;;;;;4955218;28;20497;-72
2023/05/26 04:35:10;;;;;;;16.70;5.30;;;7.50;99.90;;;;;;4960746;28;20495;-72
2023/05/26 04:37:38;;;;;;;13.67;4.80;;;7.50;99.90;;;;;;4960984;28;21277;-72
2023/05/26 04:40:09;;;;;;;13.90;5.33;;;7.50;99.90;;;;;;4953702;28;20505;-72
2023/05/26 04:42:37;;;;;;;14.90;5.07;;;7.60;99.90;;;;;;4954541;28;20587;-72
2023/05/26 04:45:08;;;;;;;12.67;4.67;;;7.60;99.90;;;;;;4956238;28;20495;-72
2023/05/26 04:47:39;;;;;;;12.70;4.57;;;7.60;99.90;;;;;;4947785;28;20983;-72
2023/05/26 04:50:12;;;;;;;13.67;4.83;;;7.70;99.90;;;;;;4952325;28;20472;-72
2023/05/26 04:53:01;;;;;;;18.87;5.60;;;7.80;99.90;;;;;;4954408;28;20521;-72
2023/05/26 04:55:30;;;;;;;13.23;4.50;;;7.80;99.90;;;;;;4954165;28;20550;-72
2023/05/26 04:57:58;;;;;;;15.27;6.13;;;7.80;99.90;;;;;;4951365;28;20470;-74
2023/05/26 05:00:26;;;;;;;15.60;4.83;;;7.90;99.90;;;;;;4946791;28;21007;-72
2023/05/26 05:02:55;;;;;;;16.30;5.67;;;8.00;99.90;;;;;;4954144;28;20976;-71
2023/05/26 05:05:24;;;;;;;19.00;7.53;;;8.00;99.90;;;;;;4954327;28;20498;-70
2023/05/26 05:07:52;;;;;;;15.63;4.70;;;8.00;99.90;;;;;;4947424;28;20999;-70
2023/05/26 05:10:20;;;;;;;19.73;6.07;;;8.00;99.90;;;;;;4949538;28;20487;-68
2023/05/26 05:12:48;;;;;;;19.33;5.40;;;8.10;99.90;;;;;;4953863;28;20830;-68
2023/05/26 05:15:22;;;;;;;11.00;4.70;;;8.20;99.90;;;;;;4939393;28;20720;-70
2023/05/26 05:17:58;;;;;;;15.30;4.30;;;8.20;99.90;;;;;;4951450;28;20556;-71
2023/05/26 05:20:26;;;;;;;17.60;5.20;;;8.20;99.90;;;;;;4954809;28;20539;-71
2023/05/26 05:22:55;;;;;;;12.90;4.80;;;8.20;99.90;;;;;;4956476;28;20484;-71
2023/05/26 05:25:23;;;;;;;17.57;5.10;;;8.20;99.90;;;;;;4953444;28;21153;-70
2023/05/26 05:27:51;;;;;;;9.60;4.93;;;8.20;99.90;;;;;;4957032;28;20482;-72
2023/05/26 05:30:20;;;;;;;15.13;4.73;;;8.30;99.90;;;;;;4947900;28;20475;-72
2023/05/26 05:32:48;;;;;;;16.17;6.03;;;8.40;99.90;;;;;;4957125;28;20565;-73
2023/05/26 05:35:18;;;;;;;12.43;4.60;;;8.40;99.90;;;;;;4953090;28;20508;-70
2023/05/26 05:37:46;;;;;;;18.10;5.57;;;8.50;99.90;;;;;;4954635;28;20506;-70
2023/05/26 05:40:14;;;;;;;16.83;5.10;;;8.60;99.90;;;;;;4946064;28;20557;-74
2023/05/26 05:42:42;;;;;;;15.13;5.50;;;8.70;99.90;;;;;;4958495;28;20575;-71
2023/05/26 05:45:11;;;;;;;17.60;5.47;;;8.70;99.90;;;;;;4955472;28;20585;-71
2023/05/26 05:47:39;;;;;;;16.00;5.50;;;8.70;99.90;;;;;;4947771;28;20972;-71
2023/05/26 05:50:08;;;;;;;12.77;4.57;;;8.80;99.90;;;;;;4952022;28;20540;-75
2023/05/26 05:52:38;;;;;;;17.10;6.13;;;8.90;99.90;;;;;;4960190;28;20494;-71
2023/05/26 05:55:07;;;;;;;12.00;5.67;;;8.90;99.90;;;;;;4957015;28;20482;-71
2023/05/26 05:57:35;;;;;;;11.37;4.83;;;9.00;99.90;;;;;;4962038;28;20860;-71
2023/05/26 06:00:04;;;;;;;11.17;4.60;;;9.10;99.90;;;;;;4957678;28;20477;-71
2023/05/26 06:02:32;;;;;;;16.80;5.57;;;9.20;99.90;;;;;;4961543;28;20528;-71
2023/05/26 06:05:00;;;;;;;13.70;4.97;;;9.20;99.90;;;;;;4957004;28;20501;-72
2023/05/26 06:07:44;;;;;;;14.73;4.73;;;9.30;99.90;;;;;;4962396;28;20492;-71
2023/05/26 06:10:12;;;;;;;12.23;5.00;;;9.30;99.90;;;;;;4962126;28;20549;-72
2023/05/26 06:12:40;;;;;;;11.73;5.57;;;9.40;99.90;;;;;;4959736;28;20857;-72
2023/05/26 06:15:09;;;;;;;12.03;5.47;;;9.50;99.90;;;;;;4960687;28;20517;-71
2023/05/26 06:17:37;;;;;;;13.73;4.80;;;9.60;99.90;;;;;;4954727;28;21146;-72
2023/05/26 06:20:10;;;;;;;14.33;5.40;;;9.60;99.90;;;;;;4960452;28;20561;-72
2023/05/26 06:22:38;;;;;;;17.90;4.70;;;9.70;99.90;;;;;;4959921;28;20931;-72
2023/05/26 06:25:08;;;;;;;16.37;4.13;;;9.80;99.90;;;;;;4958458;28;20486;-72
2023/05/26 06:27:36;;;;;;;11.57;4.80;;;9.80;99.90;;;;;;4958232;28;20466;-71
2023/05/26 06:30:05;;;;;;;12.40;5.33;;;9.90;99.90;;;;;;4959583;28;20553;-72
2023/05/26 06:32:33;;;;;;;14.33;4.67;;;10.00;99.90;;;;;;4954030;28;20499;-72
2023/05/26 06:35:01;;;;;;;18.30;6.30;;;10.00;99.90;;;;;;4955863;28;20494;-71
2023/05/26 06:37:29;;;;;;;11.87;4.40;;;10.20;99.90;;;;;;4956695;28;20533;-72
2023/05/26 06:39:57;;;;;;;11.17;4.30;;;10.20;99.90;;;;;;4959262;28;20466;-72
2023/05/26 06:42:27;;;;;;;13.53;5.17;;;10.30;99.90;;;;;;4957722;28;20578;-72
2023/05/26 06:44:55;;;;;;;13.10;4.70;;;10.30;99.90;;;;;;4958693;28;20577;-71
2023/05/26 06:47:23;;;;;;;17.83;4.33;;;10.40;99.90;;;;;;4954541;28;20478;-72
2023/05/26 06:49:52;;;;;;;15.73;4.60;;;10.40;99.90;;;;;;4959597;28;20995;-72
2023/05/26 06:52:20;;;;;;;10.77;3.80;;;10.60;99.90;;;;;;4960045;28;20478;-72
2023/05/26 06:54:48;;;;;;;11.63;5.27;;;10.60;99.90;;;;;;4957197;28;20490;-72
2023/05/26 06:57:17;;;;;;;11.37;4.77;;;10.60;99.90;;;;;;4961253;28;20535;-72
2023/05/26 06:59:46;;;;;;;15.23;5.10;;;10.70;99.90;;;;;;4958230;28;20549;-72
2023/05/26 07:02:14;;;;;;;9.80;4.00;;;10.80;99.90;;;;;;4958275;28;20494;-72
2023/05/26 07:04:44;;;;;;;10.67;4.70;;;10.90;99.90;;;;;;4940866;28;20876;-71
2023/05/26 07:07:12;;;;;;;13.00;4.17;;;11.00;99.90;;;;;;4952545;28;20895;-72
2023/05/26 07:09:40;;;;;;;12.30;3.53;;;11.00;99.90;;;;;;4956924;28;20909;-72
2023/05/26 07:12:08;;;;;;;9.03;3.90;;;11.00;99.90;;;;;;4959831;28;20510;-71
2023/05/26 07:14:36;;;;;;;11.13;3.80;;;11.10;99.90;;;;;;4957806;28;20586;-73
2023/05/26 07:17:06;;;;;;;10.23;4.53;;;11.20;99.90;;;;;;4954947;28;20589;-72
2023/05/26 07:19:34;;;;;;;11.30;4.03;;;11.20;99.90;;;;;;4960269;28;20553;-73
2023/05/26 07:22:02;;;;;;;13.03;3.50;;;11.30;99.90;;;;;;4958205;28;20588;-73
2023/05/26 07:24:31;;;;;;;13.73;4.07;;;11.30;99.90;;;;;;4957805;28;20505;-73
2023/05/26 07:26:59;;;;;;;9.43;4.03;;;11.40;99.90;;;;;;4951627;28;20561;-72
2023/05/26 07:29:27;;;;;;;13.00;5.30;;;11.40;99.90;;;;;;4958976;28;20521;-71
2023/05/26 07:31:55;;;;;;;9.93;3.80;;;11.50;99.90;;;;;;4954561;28;20497;-71
2023/05/26 07:34:24;;;;;;;8.53;3.60;;;11.60;99.90;;;;;;4959234;28;20498;-71
2023/05/26 07:36:52;;;;;;;9.63;3.23;;;11.70;99.90;;;;;;4956443;28;20487;-71
2023/05/26 07:39:20;;;;;;;11.70;4.13;;;11.70;99.90;;;;;;4957535;28;20513;-72
2023/05/26 07:41:49;;;;;;;14.30;3.90;;;11.80;99.90;;;;;;4957446;28;20582;-71
2023/05/26 07:44:18;;;;;;;10.17;3.77;;;11.90;99.90;;;;;;4958657;28;20505;-71
2023/05/26 07:46:47;;;;;;;11.90;3.60;;;12.00;99.90;;;;;;4960418;28;20924;-71
2023/05/26 07:49:15;;;;;;;7.07;3.13;;;12.00;99.90;;;;;;4964547;28;20474;-71
2023/05/26 07:51:44;;;;;;;7.90;3.53;;;12.10;99.90;;;;;;4959355;28;20559;-71
2023/05/26 07:54:12;;;;;;;14.30;3.83;;;12.20;99.90;;;;;;4962284;28;20577;-71
2023/05/26 07:56:40;;;;;;;9.47;3.60;;;12.30;99.90;;;;;;4959794;28;20906;-71
2023/05/26 07:59:09;;;;;;;11.00;3.77;;;12.30;99.90;;;;;;4963924;28;20908;-71
2023/05/26 08:01:37;;;;;;;8.70;3.80;;;12.40;99.90;;;;;;4963122;28;20560;-71
2023/05/26 08:04:05;;;;;;;7.03;3.43;;;12.50;99.90;;;;;;4963237;28;20498;-71
2023/05/26 08:06:33;;;;;;;11.47;5.07;;;12.50;99.90;;;;;;4960563;28;20588;-71
2023/05/26 08:09:03;;;;;;;8.77;3.47;;;12.50;99.90;;;;;;4964792;28;20517;-71
2023/05/26 08:11:31;;;;;;;9.13;3.80;;;12.60;99.90;;;;;;4961805;28;20554;-71
2023/05/26 08:13:59;;;;;;;8.87;3.57;;;12.70;99.90;;;;;;4960409;28;20573;-71
2023/05/26 08:16:27;;;;;;;11.10;4.37;;;12.80;99.90;;;;;;4964076;28;20552;-71
2023/05/26 08:18:55;;;;;;;9.47;4.00;;;12.80;99.90;;;;;;4962278;28;20870;-71
2023/05/26 08:21:23;;;;;;;9.37;3.93;;;12.90;99.90;;;;;;4958451;28;20933;-71
2023/05/26 08:23:52;;;;;;;8.27;4.07;;;13.00;99.90;;;;;;4958081;28;20501;-71
2023/05/26 08:26:23;;;;;;;14.53;4.60;;;13.10;99.90;;;;;;4960152;28;21024;-71
2023/05/26 08:28:51;;;;;;;10.17;4.00;;;13.20;99.90;;;;;;4961331;28;20474;-71
2023/05/26 08:31:19;;;;;;;9.70;4.23;;;13.20;99.90;;;;;;4956902;28;20553;-71
2023/05/26 08:33:47;;;;;;;11.70;3.90;;;13.20;99.90;;;;;;4958561;28;20866;-71
2023/05/26 08:36:15;;;;;;;11.40;4.67;;;13.30;99.90;;;;;;4960145;28;20485;-71
2023/05/26 08:38:43;;;;;;;9.50;4.03;;;13.30;99.90;;;;;;4960552;28;21142;-71
2023/05/26 08:41:13;;;;;;;9.73;4.10;;;13.40;99.90;;;;;;4958363;28;20914;-71
2023/05/26 08:43:47;;;;;;;11.40;4.47;;;13.40;99.90;;;;;;4960670;28;20505;-71
2023/05/26 08:46:32;;;;;;;9.80;4.30;;;13.50;99.90;;;;;;4960958;28;20990;-71
2023/05/26 08:49:01;;;;;;;9.83;3.80;;;13.50;99.90;;;;;;4958376;28;20482;-71
2023/05/26 08:51:32;;;;;;;6.00;3.60;;;13.60;99.90;;;;;;4960525;28;20471;-71
2023/05/26 08:54:00;;;;;;;8.97;4.20;;;13.70;99.90;;;;;;4961055;28;21345;-71
2023/05/26 08:56:28;;;;;;;11.47;4.13;;;13.70;99.90;;;;;;4958337;28;20494;-71
2023/05/26 08:59:00;;;;;;;10.30;4.33;;;13.70;99.90;;;;;;4962566;28;20800;-71
2023/05/26 09:01:28;;;;;;;13.07;4.23;;;13.80;99.90;;;;;;4957283;28;20470;-71
2023/05/26 09:03:56;;;;;;;7.90;4.03;;;13.90;99.90;;;;;;4960198;28;20507;-71
2023/05/26 09:06:24;;;;;;;15.50;4.97;;;13.90;99.90;;;;;;4958540;28;20501;-71
2023/05/26 09:08:53;;;;;;;10.10;3.87;;;13.90;99.90;;;;;;4954369;28;20512;-71
2023/05/26 09:11:23;;;;;;;9.23;5.40;;;13.80;99.90;;;;;;4958082;28;20466;-71
2023/05/26 09:13:56;;;;;;;9.63;4.30;;;13.80;99.90;;;;;;4960492;28;20554;-71
2023/05/26 09:16:28;;;;;;;9.97;4.10;;;14.00;99.90;;;;;;4958397;28;21026;-71
2023/05/26 09:18:57;;;;;;;11.20;3.67;;;14.20;99.90;;;;;;4958054;28;20502;-71
2023/05/26 09:21:27;;;;;;;6.80;3.80;;;14.30;99.90;;;;;;4957026;28;20466;-71
2023/05/26 09:23:56;;;;;;;10.10;4.30;;;14.50;99.90;;;;;;4958698;28;20561;-71
2023/05/26 09:26:34;;;;;;;8.60;3.87;;;14.50;99.90;;;;;;4961788;28;21951;-72
2023/05/26 09:29:05;;;;;;;9.30;4.50;;;14.50;99.90;;;;;;4961174;28;20478;-72
2023/05/26 09:31:42;;;;;;;7.00;3.90;;;14.50;99.90;;;;;;4958869;28;20589;-71
2023/05/26 09:34:11;;;;;;;12.53;4.80;;;14.50;99.90;;;;;;4960728;28;20528;-71
2023/05/26 09:36:40;;;;;;;11.23;4.40;;;14.60;99.90;;;;;;4958333;28;20580;-71
2023/05/26 09:39:10;;;;;;;8.90;4.40;;;14.70;99.90;;;;;;4959853;28;20977;-71
2023/05/26 09:41:38;;;;;;;10.17;4.20;;;14.70;99.90;;;;;;4961004;28;20509;-71
2023/05/26 09:44:11;;;;;;;11.60;5.03;;;14.60;99.90;;;;;;4957062;28;20498;-72
2023/05/26 09:46:41;;;;;;;9.63;4.50;;;14.50;99.90;;;;;;4958346;28;20493;-71
2023/05/26 09:49:12;;;;;;;9.00;4.30;;;14.60;99.90;;;;;;4960649;28;20561;-71
2023/05/26 09:51:44;;;;;;;15.00;5.10;;;14.60;99.90;;;;;;4960238;28;20506;-71
2023/05/26 09:54:15;;;;;;;10.20;4.10;;;14.70;99.90;;;;;;4959739;28;20490;-71
2023/05/26 09:56:51;;;;;;;9.13;4.00;;;14.90;99.90;;;;;;4959794;28;21076;-71
2023/05/26 09:59:20;;;;;;;11.00;4.53;;;15.00;99.90;;;;;;4961987;28;20912;-71
2023/05/26 10:01:52;;;;;;;10.07;4.50;;;15.20;99.90;;;;;;4958886;28;20530;-72
2023/05/26 10:04:20;;;;;;;9.87;4.40;;;15.10;99.90;;;;;;4961421;28;20489;-71
2023/05/26 10:06:50;;;;;;;10.77;4.67;;;15.10;99.90;;;;;;4959970;28;21135;-70
2023/05/26 10:09:22;;;;;;;8.60;4.57;;;15.10;99.90;;;;;;4958854;28;20471;-71
2023/05/26 10:11:52;;;;;;;9.33;4.50;;;15.10;99.90;;;;;;4959651;28;20662;-71
2023/05/26 10:14:20;;;;;;;7.17;4.00;;;15.10;99.90;;;;;;4957551;28;20490;-71
2023/05/26 10:16:51;;;;;;;11.10;5.23;;;15.20;99.90;;;;;;4959729;28;20521;-71
2023/05/26 10:19:19;;;;;;;10.70;4.10;;;15.30;99.90;;;;;;4960234;28;20471;-71
2023/05/26 10:21:53;;;;;;;10.93;4.73;;;15.40;99.90;;;;;;4957517;28;21194;-70
2023/05/26 10:24:29;;;;;;;9.33;4.70;;;15.50;99.90;;;;;;4958639;28;20509;-71
2023/05/26 10:27:05;;;;;;;9.77;5.60;;;15.60;99.90;;;;;;4958182;28;20621;-71
2023/05/26 10:29:42;;;;;;;8.13;4.13;;;15.70;99.90;;;;;;4960338;28;20505;-72
2023/05/26 10:32:45;;;;;;;9.50;4.70;;;15.80;99.90;;;;;;4959697;28;20478;-71
2023/05/26 10:35:30;;;;;;;11.33;4.77;;;15.80;99.90;;;;;;4959367;28;21057;-71
2023/05/26 10:38:12;;;;;;;10.27;4.50;;;15.80;99.90;;;;;;4960829;28;20470;-71
2023/05/26 10:40:43;;;;;;;7.50;4.40;;;15.90;99.90;;;;;;4955077;28;21091;-71
2023/05/26 10:43:20;;;;;;;8.93;5.00;;;15.90;99.90;;;;;;4956504;28;20533;-71
2023/05/26 10:45:52;;;;;;;8.53;4.93;;;15.90;99.90;;;;;;4956757;28;21137;-71
2023/05/26 10:48:25;;;;;;;10.73;5.00;;;15.90;99.90;;;;;;4960466;28;20505;-71
2023/05/26 10:51:15;;;;;;;7.93;5.00;;;15.90;99.90;;;;;;4960393;28;20850;-71
2023/05/26 10:53:45;;;;;;;12.20;5.00;;;15.90;99.90;;;;;;4956658;28;21077;-71
2023/05/26 10:56:14;;;;;;;8.63;5.20;;;16.00;99.90;;;;;;4958057;28;21034;-71
2023/05/26 10:58:46;;;;;;;10.77;5.07;;;16.10;99.90;;;;;;4956293;28;20495;-71
2023/05/26 11:01:16;;;;;;;12.23;4.70;;;16.00;99.90;;;;;;4958878;28;20881;-71
2023/05/26 11:03:49;;;;;;;12.83;5.13;;;16.00;99.90;;;;;;4960727;28;20960;-71
2023/05/26 11:06:32;;;;;;;12.77;5.13;;;16.00;99.90;;;;;;4958083;28;20582;-71
2023/05/26 11:09:06;;;;;;;7.13;4.30;;;16.10;99.90;;;;;;4960219;28;20962;-70
2023/05/26 11:11:38;;;;;;;7.47;4.80;;;16.20;99.90;;;;;;4959600;28;20848;-71
2023/05/26 11:14:09;;;;;;;10.67;4.80;;;16.40;99.90;;;;;;4955108;28;20513;-70
2023/05/26 11:16:40;;;;;;;11.97;4.60;;;16.60;99.90;;;;;;4958361;28;20513;-70
2023/05/26 11:19:11;;;;;;;10.37;5.30;;;16.80;99.90;;;;;;4958689;28;20466;-70
2023/05/26 11:21:41;;;;;;;11.70;5.97;;;16.90;99.90;;;;;;4955952;28;20516;-70
2023/05/26 11:24:09;;;;;;;14.20;6.43;;;16.90;99.90;;;;;;4959834;28;20594;-70
2023/05/26 11:26:37;;;;;;;8.67;5.70;;;16.90;99.90;;;;;;4954884;28;21716;-70
2023/05/26 11:29:05;;;;;;;9.40;6.40;;;16.80;99.90;;;;;;4954220;28;20529;-69
2023/05/26 11:31:34;;;;;;;11.00;6.13;;;16.70;99.90;;;;;;4959155;28;20597;-71
2023/05/26 11:34:02;;;;;;;10.70;6.43;;;16.70;99.90;;;;;;4951117;28;20490;-70
2023/05/26 11:36:32;;;;;;;31.50;17.63;;;16.50;99.90;;;;;;4957001;28;20498;-68
2023/05/26 11:39:01;;;;;;;41.47;24.77;;;16.60;99.90;;;;;;4956746;28;20508;-68
2023/05/26 11:41:30;;;;;;;39.10;25.03;;;16.80;99.90;;;;;;4956481;28;20490;-69
2023/05/26 11:43:58;;;;;;;17.10;8.77;;;16.90;99.90;;;;;;4961974;28;20529;-69
2023/05/26 11:46:30;;;;;;;14.43;7.97;;;17.00;99.90;;;;;;4955416;28;20497;-69
2023/05/26 11:49:00;;;;;;;16.83;10.30;;;17.10;99.90;;;;;;4955148;28;21042;-69
2023/05/26 11:51:28;;;;;;;11.47;7.50;;;17.20;99.90;;;;;;4953108;28;20566;-70
2023/05/26 11:54:00;;;;;;;13.93;6.90;;;17.20;99.90;;;;;;4955855;28;20539;-69
2023/05/26 11:56:35;;;;;;;9.03;6.30;;;17.20;99.90;;;;;;4955055;28;20517;-69
2023/05/26 11:59:04;;;;;;;13.90;8.30;;;17.10;99.90;;;;;;4952547;28;20470;-69
2023/05/26 12:01:34;;;;;;;11.60;5.50;;;17.20;99.90;;;;;;4955511;28;20478;-69
2023/05/26 12:04:06;;;;;;;10.13;5.67;;;17.20;99.90;;;;;;4949038;28;20505;-68
2023/05/26 12:06:40;;;;;;;12.30;5.03;;;17.00;99.90;;;;;;4960745;28;20514;-69
2023/05/26 12:09:19;;;;;;;8.07;5.17;;;16.90;99.90;;;;;;4958539;28;20560;-69
2023/05/26 12:11:48;;;;;;;14.37;5.53;;;16.90;99.90;;;;;;4958407;28;20476;-69
2023/05/26 12:14:16;;;;;;;11.83;5.67;;;16.90;99.90;;;;;;4958732;28;20972;-69
2023/05/26 12:16:45;;;;;;;7.30;4.93;;;17.00;99.90;;;;;;4954191;28;20490;-68
2023/05/26 12:19:16;;;;;;;11.10;4.80;;;17.20;99.90;;;;;;4956760;28;20482;-68
2023/05/26 12:21:46;;;;;;;11.20;5.30;;;17.40;99.90;;;;;;4957941;28;20480;-68
2023/05/26 12:24:29;;;;;;;8.90;4.70;;;17.60;99.90;;;;;;4958707;28;20521;-68
2023/05/26 12:26:57;;;;;;;7.00;4.33;;;17.60;99.90;;;;;;4956437;28;20486;-70
2023/05/26 12:29:27;;;;;;;6.73;4.20;;;17.70;99.90;;;;;;4955572;28;20542;-70
2023/05/26 12:31:55;;;;;;;7.63;4.23;;;17.80;99.90;;;;;;4952077;28;20470;-70
2023/05/26 12:34:25;;;;;;;7.20;4.97;;;18.00;99.90;;;;;;4957017;28;21000;-70
2023/05/26 12:36:54;;;;;;;7.13;4.80;;;18.00;99.90;;;;;;4949258;28;20601;-71
2023/05/26 12:39:23;;;;;;;10.07;5.37;;;18.00;99.90;;;;;;4954199;28;20471;-70
2023/05/26 12:41:51;;;;;;;13.93;5.17;;;17.90;99.90;;;;;;4960969;28;20477;-70
2023/05/26 12:44:19;;;;;;;8.97;5.03;;;17.80;99.90;;;;;;4959582;28;20576;-70
2023/05/26 12:46:48;;;;;;;9.57;4.97;;;17.70;99.90;;;;;;4958254;28;21042;-70
2023/05/26 12:49:16;;;;;;;8.50;4.73;;;17.70;99.90;;;;;;4959084;28;20526;-70
2023/05/26 12:51:44;;;;;;;8.07;4.67;;;17.80;99.90;;;;;;4963924;28;20603;-70
2023/05/26 12:54:12;;;;;;;8.07;4.53;;;17.80;99.90;;;;;;4958083;28;20617;-70
2023/05/26 12:56:42;;;;;;;9.80;4.07;;;17.90;99.90;;;;;;4948566;28;20492;-70